sensor_id;sensor_type;location;lat;lon;timestamp;temperature;humidity
23769;DHT22;12064;50.890;5.424;2023-03-23T00:08:50;18.00;85.10
23769;DHT22;12064;50.890;5.424;2023-03-23T00:17:46;18.00;85.30
23769;DHT22;12064;50.890;5.424;2023-03-23T00:26:39;18.00;85.10
23769;DHT22;12064;50.890;5.424;2023-03-23T00:35:30;17.90;85.20
23769;DHT22;12064;50.890;5.424;2023-03-23T00:44:21;18.00;85.10
23769;DHT22;12064;50.890;5.424;2023-03-23T00:53:14;18.00;85.30
23769;DHT22;12064;50.890;5.424;2023-03-23T01:02:05;17.90;85.30
23769;DHT22;12064;50.890;5.424;2023-03-23T01:11:05;18.00;85.30
23769;DHT22;12064;50.890;5.424;2023-03-23T01:19:56;18.00;85.30
23769;DHT22;12064;50.890;5.424;2023-03-23T01:28:48;18.00;85.30
23769;DHT22;12064;50.890;5.424;2023-03-23T01:37:39;18.00;85.30
23769;DHT22;12064;50.890;5.424;2023-03-23T01:46:34;18.00;85.40
23769;DHT22;12064;50.890;5.424;2023-03-23T01:55:26;18.00;85.30
23769;DHT22;12064;50.890;5.424;2023-03-23T02:04:18;18.00;85.40
23769;DHT22;12064;50.890;5.424;2023-03-23T02:13:11;18.00;85.40
23769;DHT22;12064;50.890;5.424;2023-03-23T02:22:43;18.00;85.30
23769;DHT22;12064;50.890;5.424;2023-03-23T02:41:06;18.00;85.50
23769;DHT22;12064;50.890;5.424;2023-03-23T02:49:58;18.00;85.50
23769;DHT22;12064;50.890;5.424;2023-03-23T02:58:50;18.00;85.50
23769;DHT22;12064;50.890;5.424;2023-03-23T03:17:23;18.00;85.50
23769;DHT22;12064;50.890;5.424;2023-03-23T03:26:14;17.90;85.70
23769;DHT22;12064;50.890;5.424;2023-03-23T03:35:07;18.00;85.70
23769;DHT22;12064;50.890;5.424;2023-03-23T03:43:59;18.00;85.80
23769;DHT22;12064;50.890;5.424;2023-03-23T03:52:50;18.00;85.70
23769;DHT22;12064;50.890;5.424;2023-03-23T04:01:40;18.00;85.80
23769;DHT22;12064;50.890;5.424;2023-03-23T04:10:32;17.90;85.90
23769;DHT22;12064;50.890;5.424;2023-03-23T04:19:23;18.00;85.90
23769;DHT22;12064;50.890;5.424;2023-03-23T04:28:15;17.90;85.90
23769;DHT22;12064;50.890;5.424;2023-03-23T04:37:07;18.00;85.90
23769;DHT22;12064;50.890;5.424;2023-03-23T04:45:59;18.00;86.00
23769;DHT22;12064;50.890;5.424;2023-03-23T04:54:51;18.00;86.00
23769;DHT22;12064;50.890;5.424;2023-03-23T05:03:43;17.90;87.20
23769;DHT22;12064;50.890;5.424;2023-03-23T05:12:34;17.90;86.60
23769;DHT22;12064;50.890;5.424;2023-03-23T05:21:25;17.90;86.80
23769;DHT22;12064;50.890;5.424;2023-03-23T05:30:16;17.90;86.80
23769;DHT22;12064;50.890;5.424;2023-03-23T05:39:07;17.90;86.80
23769;DHT22;12064;50.890;5.424;2023-03-23T05:48:00;17.90;86.90
23769;DHT22;12064;50.890;5.424;2023-03-23T05:56:51;17.90;87.00
23769;DHT22;12064;50.890;5.424;2023-03-23T06:05:45;17.90;87.40
23769;DHT22;12064;50.890;5.424;2023-03-23T06:14:36;17.90;87.30
23769;DHT22;12064;50.890;5.424;2023-03-23T06:23:27;17.90;87.20
23769;DHT22;12064;50.890;5.424;2023-03-23T06:32:19;17.90;86.90
23769;DHT22;12064;50.890;5.424;2023-03-23T06:41:10;17.90;86.70
23769;DHT22;12064;50.890;5.424;2023-03-23T06:50:01;17.90;86.00
23769;DHT22;12064;50.890;5.424;2023-03-23T06:58:52;17.90;86.20
23769;DHT22;12064;50.890;5.424;2023-03-23T07:07:43;17.90;86.20
23769;DHT22;12064;50.890;5.424;2023-03-23T07:16:33;17.90;86.60
23769;DHT22;12064;50.890;5.424;2023-03-23T07:25:24;17.90;86.20
23769;DHT22;12064;50.890;5.424;2023-03-23T07:34:15;17.90;86.00
23769;DHT22;12064;50.890;5.424;2023-03-23T07:43:06;17.90;86.10
23769;DHT22;12064;50.890;5.424;2023-03-23T07:51:57;17.90;86.10
23769;DHT22;12064;50.890;5.424;2023-03-23T08:00:48;17.90;86.20
23769;DHT22;12064;50.890;5.424;2023-03-23T08:09:39;17.90;86.20
23769;DHT22;12064;50.890;5.424;2023-03-23T08:18:30;17.90;86.20
23769;DHT22;12064;50.890;5.424;2023-03-23T08:27:21;17.90;86.00
23769;DHT22;12064;50.890;5.424;2023-03-23T08:36:12;17.90;86.10
23769;DHT22;12064;50.890;5.424;2023-03-23T08:45:08;18.00;85.90
23769;DHT22;12064;50.890;5.424;2023-03-23T08:53:59;18.00;85.40
23769;DHT22;12064;50.890;5.424;2023-03-23T09:02:52;18.00;85.90
23769;DHT22;12064;50.890;5.424;2023-03-23T09:11:43;17.90;86.10
23769;DHT22;12064;50.890;5.424;2023-03-23T09:20:33;17.90;86.00
23769;DHT22;12064;50.890;5.424;2023-03-23T09:29:25;17.90;86.00
23769;DHT22;12064;50.890;5.424;2023-03-23T09:38:17;17.90;86.10
23769;DHT22;12064;50.890;5.424;2023-03-23T09:56:12;17.90;86.80
23769;DHT22;12064;50.890;5.424;2023-03-23T10:32:41;17.90;85.80
23769;DHT22;12064;50.890;5.424;2023-03-23T10:41:32;17.90;85.80
23769;DHT22;12064;50.890;5.424;2023-03-23T10:50:30;17.90;85.90
23769;DHT22;12064;50.890;5.424;2023-03-23T10:59:28;17.90;85.70
23769;DHT22;12064;50.890;5.424;2023-03-23T11:08:23;18.00;85.70
23769;DHT22;12064;50.890;5.424;2023-03-23T11:17:23;17.90;85.80
23769;DHT22;12064;50.890;5.424;2023-03-23T11:26:23;18.00;85.70
23769;DHT22;12064;50.890;5.424;2023-03-23T11:35:17;17.90;85.80
23769;DHT22;12064;50.890;5.424;2023-03-23T11:44:11;18.00;85.60
23769;DHT22;12064;50.890;5.424;2023-03-23T12:20:40;18.20;85.60
23769;DHT22;12064;50.890;5.424;2023-03-23T12:57:00;18.30;84.90
23769;DHT22;12064;50.890;5.424;2023-03-23T13:06:44;18.40;84.50
23769;DHT22;12064;50.890;5.424;2023-03-23T13:24:18;18.70;83.60
23769;DHT22;12064;50.890;5.424;2023-03-23T13:33:12;18.60;83.50
23769;DHT22;12064;50.890;5.424;2023-03-23T13:50:59;18.50;84.00
23769;DHT22;12064;50.890;5.424;2023-03-23T13:59:57;18.50;84.00
23769;DHT22;12064;50.890;5.424;2023-03-23T14:08:51;18.40;84.00
23769;DHT22;12064;50.890;5.424;2023-03-23T14:17:44;18.40;83.90
23769;DHT22;12064;50.890;5.424;2023-03-23T14:26:35;18.40;84.00
23769;DHT22;12064;50.890;5.424;2023-03-23T14:35:30;18.50;83.80
23769;DHT22;12064;50.890;5.424;2023-03-23T14:44:34;18.50;83.60
23769;DHT22;12064;50.890;5.424;2023-03-23T14:53:39;18.50;83.80
23769;DHT22;12064;50.890;5.424;2023-03-23T15:02:36;18.50;83.80
23769;DHT22;12064;50.890;5.424;2023-03-23T15:11:36;18.40;83.80
23769;DHT22;12064;50.890;5.424;2023-03-23T15:20:31;18.50;83.80
23769;DHT22;12064;50.890;5.424;2023-03-23T15:29:22;18.50;83.80
23769;DHT22;12064;50.890;5.424;2023-03-23T15:38:29;18.50;83.60
23769;DHT22;12064;50.890;5.424;2023-03-23T15:47:21;18.50;83.60
23769;DHT22;12064;50.890;5.424;2023-03-23T15:56:13;18.50;83.50
23769;DHT22;12064;50.890;5.424;2023-03-23T16:05:04;18.50;83.60
23769;DHT22;12064;50.890;5.424;2023-03-23T16:13:56;18.50;83.50
23769;DHT22;12064;50.890;5.424;2023-03-23T16:22:48;18.50;83.50
23769;DHT22;12064;50.890;5.424;2023-03-23T16:31:39;18.50;83.60
23769;DHT22;12064;50.890;5.424;2023-03-23T16:40:30;18.50;83.60
23769;DHT22;12064;50.890;5.424;2023-03-23T16:49:22;18.50;83.50
23769;DHT22;12064;50.890;5.424;2023-03-23T16:58:14;18.60;83.40
23769;DHT22;12064;50.890;5.424;2023-03-23T17:07:05;18.60;83.30
23769;DHT22;12064;50.890;5.424;2023-03-23T17:15:56;18.60;83.40
23769;DHT22;12064;50.890;5.424;2023-03-23T17:24:47;18.60;83.50
23769;DHT22;12064;50.890;5.424;2023-03-23T17:33:37;18.60;83.40
23769;DHT22;12064;50.890;5.424;2023-03-23T17:42:28;18.60;83.50
23769;DHT22;12064;50.890;5.424;2023-03-23T17:51:19;18.50;83.50
23769;DHT22;12064;50.890;5.424;2023-03-23T18:00:10;18.60;83.40
23769;DHT22;12064;50.890;5.424;2023-03-23T18:09:01;18.60;83.30
23769;DHT22;12064;50.890;5.424;2023-03-23T18:17:53;18.60;83.30
23769;DHT22;12064;50.890;5.424;2023-03-23T18:26:43;18.60;83.70
23769;DHT22;12064;50.890;5.424;2023-03-23T18:35:34;18.60;84.00
23769;DHT22;12064;50.890;5.424;2023-03-23T18:44:25;18.60;84.50
23769;DHT22;12064;50.890;5.424;2023-03-23T18:53:16;18.50;84.90
23769;DHT22;12064;50.890;5.424;2023-03-23T19:02:08;18.50;84.80
23769;DHT22;12064;50.890;5.424;2023-03-23T19:11:01;18.50;84.60
23769;DHT22;12064;50.890;5.424;2023-03-23T19:19:52;18.50;84.70
23769;DHT22;12064;50.890;5.424;2023-03-23T19:28:43;18.50;84.80
23769;DHT22;12064;50.890;5.424;2023-03-23T19:37:33;18.40;84.80
23769;DHT22;12064;50.890;5.424;2023-03-23T19:46:24;18.40;84.80
23769;DHT22;12064;50.890;5.424;2023-03-23T19:55:15;18.50;84.50
23769;DHT22;12064;50.890;5.424;2023-03-23T20:04:08;18.40;84.60
23769;DHT22;12064;50.890;5.424;2023-03-23T20:13:00;18.50;84.60
23769;DHT22;12064;50.890;5.424;2023-03-23T20:21:51;18.40;84.50
23769;DHT22;12064;50.890;5.424;2023-03-23T20:30:42;18.40;84.40
23769;DHT22;12064;50.890;5.424;2023-03-23T20:39:32;18.40;84.40
23769;DHT22;12064;50.890;5.424;2023-03-23T20:48:31;18.40;84.60
23769;DHT22;12064;50.890;5.424;2023-03-23T20:57:23;18.30;84.80
23769;DHT22;12064;50.890;5.424;2023-03-23T21:06:14;18.30;84.70
23769;DHT22;12064;50.890;5.424;2023-03-23T21:15:06;18.40;85.40
23769;DHT22;12064;50.890;5.424;2023-03-23T21:23:57;18.40;85.10
23769;DHT22;12064;50.890;5.424;2023-03-23T21:32:48;18.30;85.40
23769;DHT22;12064;50.890;5.424;2023-03-23T21:41:40;18.30;85.20
23769;DHT22;12064;50.890;5.424;2023-03-23T21:50:39;18.40;85.30
23769;DHT22;12064;50.890;5.424;2023-03-23T21:59:31;18.40;85.20
23769;DHT22;12064;50.890;5.424;2023-03-23T22:08:24;18.30;85.20
23769;DHT22;12064;50.890;5.424;2023-03-23T22:17:15;18.30;85.30
23769;DHT22;12064;50.890;5.424;2023-03-23T22:26:06;18.30;85.10
23769;DHT22;12064;50.890;5.424;2023-03-23T22:35:01;18.30;85.10
23769;DHT22;12064;50.890;5.424;2023-03-23T22:43:54;18.30;85.20
23769;DHT22;12064;50.890;5.424;2023-03-23T22:52:45;18.30;85.20
23769;DHT22;12064;50.890;5.424;2023-03-23T23:01:36;18.30;85.40
23769;DHT22;12064;50.890;5.424;2023-03-23T23:10:26;18.20;85.50
23769;DHT22;12064;50.890;5.424;2023-03-23T23:19:17;18.30;85.50
23769;DHT22;12064;50.890;5.424;2023-03-23T23:28:08;18.20;85.70
23769;DHT22;12064;50.890;5.424;2023-03-23T23:36:59;18.30;85.70
23769;DHT22;12064;50.890;5.424;2023-03-23T23:45:49;18.20;85.80
23769;DHT22;12064;50.890;5.424;2023-03-23T23:54:41;18.20;85.90
